sensor_id;sensor_type;location;lat;lon;timestamp;P1;durP1;ratioP1;P2;durP2;ratioP2
37164;SDS011;23057;48.554;14.454;2023-10-13T00:02:29;10.90;;;3.45;;
37164;SDS011;23057;48.554;14.454;2023-10-13T00:05:00;10.15;;;3.45;;
37164;SDS011;23057;48.554;14.454;2023-10-13T00:07:31;10.77;;;4.18;;
37164;SDS011;23057;48.554;14.454;2023-10-13T00:10:01;7.00;;;3.55;;
37164;SDS011;23057;48.554;14.454;2023-10-13T00:12:37;11.45;;;4.22;;
37164;SDS011;23057;48.554;14.454;2023-10-13T00:15:08;8.88;;;3.80;;
37164;SDS011;23057;48.554;14.454;2023-10-13T00:17:43;11.73;;;3.42;;
37164;SDS011;23057;48.554;14.454;2023-10-13T00:20:14;10.02;;;3.90;;
37164;SDS011;23057;48.554;14.454;2023-10-13T00:22:47;9.18;;;3.25;;
37164;SDS011;23057;48.554;14.454;2023-10-13T00:25:18;13.65;;;3.63;;
37164;SDS011;23057;48.554;14.454;2023-10-13T00:27:56;5.88;;;3.15;;
37164;SDS011;23057;48.554;14.454;2023-10-13T00:30:27;8.52;;;3.90;;
37164;SDS011;23057;48.554;14.454;2023-10-13T00:33:04;9.90;;;3.25;;
37164;SDS011;23057;48.554;14.454;2023-10-13T00:35:35;7.22;;;3.47;;
37164;SDS011;23057;48.554;14.454;2023-10-13T00:38:06;6.70;;;2.95;;
37164;SDS011;23057;48.554;14.454;2023-10-13T00:40:43;9.77;;;4.80;;
37164;SDS011;23057;48.554;14.454;2023-10-13T00:43:22;9.60;;;3.47;;
37164;SDS011;23057;48.554;14.454;2023-10-13T00:45:54;8.52;;;3.67;;
37164;SDS011;23057;48.554;14.454;2023-10-13T00:48:36;9.82;;;3.67;;
37164;SDS011;23057;48.554;14.454;2023-10-13T00:51:21;7.88;;;3.80;;
37164;SDS011;23057;48.554;14.454;2023-10-13T00:54:03;6.72;;;3.55;;
37164;SDS011;23057;48.554;14.454;2023-10-13T00:56:42;12.68;;;3.53;;
37164;SDS011;23057;48.554;14.454;2023-10-13T00:59:39;10.63;;;3.10;;
37164;SDS011;23057;48.554;14.454;2023-10-13T01:02:13;9.23;;;3.75;;
37164;SDS011;23057;48.554;14.454;2023-10-13T01:05:16;6.75;;;3.42;;
37164;SDS011;23057;48.554;14.454;2023-10-13T01:07:49;6.53;;;3.58;;
37164;SDS011;23057;48.554;14.454;2023-10-13T01:10:24;9.63;;;3.80;;
37164;SDS011;23057;48.554;14.454;2023-10-13T01:12:57;9.00;;;3.78;;
37164;SDS011;23057;48.554;14.454;2023-10-13T01:15:32;10.55;;;4.20;;
37164;SDS011;23057;48.554;14.454;2023-10-13T01:18:09;5.63;;;3.22;;
37164;SDS011;23057;48.554;14.454;2023-10-13T01:20:42;7.97;;;3.85;;
37164;SDS011;23057;48.554;14.454;2023-10-13T01:23:15;6.50;;;3.45;;
37164;SDS011;23057;48.554;14.454;2023-10-13T01:25:49;10.65;;;3.53;;
37164;SDS011;23057;48.554;14.454;2023-10-13T01:28:20;8.30;;;3.75;;
37164;SDS011;23057;48.554;14.454;2023-10-13T01:30:52;11.65;;;3.55;;
37164;SDS011;23057;48.554;14.454;2023-10-13T01:33:23;10.00;;;3.40;;
37164;SDS011;23057;48.554;14.454;2023-10-13T01:35:56;9.07;;;3.75;;
37164;SDS011;23057;48.554;14.454;2023-10-13T01:38:29;11.50;;;4.28;;
37164;SDS011;23057;48.554;14.454;2023-10-13T01:41:06;7.97;;;3.40;;
37164;SDS011;23057;48.554;14.454;2023-10-13T01:43:38;6.32;;;3.40;;
37164;SDS011;23057;48.554;14.454;2023-10-13T01:46:10;6.95;;;3.33;;
37164;SDS011;23057;48.554;14.454;2023-10-13T01:48:45;5.07;;;3.10;;
37164;SDS011;23057;48.554;14.454;2023-10-13T01:51:16;8.68;;;3.58;;
37164;SDS011;23057;48.554;14.454;2023-10-13T01:53:47;8.10;;;3.70;;
37164;SDS011;23057;48.554;14.454;2023-10-13T01:56:26;9.43;;;3.40;;
37164;SDS011;23057;48.554;14.454;2023-10-13T01:59:00;10.48;;;3.55;;
37164;SDS011;23057;48.554;14.454;2023-10-13T02:01:34;9.82;;;3.70;;
37164;SDS011;23057;48.554;14.454;2023-10-13T02:04:05;9.50;;;4.75;;
37164;SDS011;23057;48.554;14.454;2023-10-13T02:06:40;9.27;;;3.97;;
37164;SDS011;23057;48.554;14.454;2023-10-13T02:09:13;10.23;;;4.53;;
37164;SDS011;23057;48.554;14.454;2023-10-13T02:11:44;11.88;;;4.05;;
37164;SDS011;23057;48.554;14.454;2023-10-13T02:14:16;7.60;;;4.10;;
37164;SDS011;23057;48.554;14.454;2023-10-13T02:16:47;7.75;;;4.47;;
37164;SDS011;23057;48.554;14.454;2023-10-13T02:19:21;10.07;;;4.55;;
37164;SDS011;23057;48.554;14.454;2023-10-13T02:21:57;8.48;;;3.53;;
37164;SDS011;23057;48.554;14.454;2023-10-13T02:24:32;10.65;;;4.68;;
37164;SDS011;23057;48.554;14.454;2023-10-13T02:27:03;6.47;;;3.70;;
37164;SDS011;23057;48.554;14.454;2023-10-13T02:29:35;8.68;;;3.97;;
37164;SDS011;23057;48.554;14.454;2023-10-13T02:32:09;11.55;;;4.65;;
37164;SDS011;23057;48.554;14.454;2023-10-13T02:34:48;14.43;;;4.32;;
37164;SDS011;23057;48.554;14.454;2023-10-13T02:37:19;9.95;;;4.20;;
37164;SDS011;23057;48.554;14.454;2023-10-13T02:39:50;8.32;;;4.00;;
37164;SDS011;23057;48.554;14.454;2023-10-13T02:42:21;15.20;;;4.55;;
37164;SDS011;23057;48.554;14.454;2023-10-13T02:44:54;10.85;;;3.95;;
37164;SDS011;23057;48.554;14.454;2023-10-13T02:47:27;18.13;;;5.18;;
37164;SDS011;23057;48.554;14.454;2023-10-13T02:50:01;10.25;;;4.80;;
37164;SDS011;23057;48.554;14.454;2023-10-13T02:52:37;12.93;;;5.10;;
37164;SDS011;23057;48.554;14.454;2023-10-13T02:55:11;15.40;;;4.85;;
37164;SDS011;23057;48.554;14.454;2023-10-13T02:57:46;13.45;;;4.93;;
37164;SDS011;23057;48.554;14.454;2023-10-13T03:00:18;13.27;;;4.57;;
37164;SDS011;23057;48.554;14.454;2023-10-13T03:02:53;10.13;;;4.55;;
37164;SDS011;23057;48.554;14.454;2023-10-13T03:05:28;8.63;;;4.10;;
37164;SDS011;23057;48.554;14.454;2023-10-13T03:08:05;12.70;;;4.53;;
37164;SDS011;23057;48.554;14.454;2023-10-13T03:10:36;8.25;;;4.32;;
37164;SDS011;23057;48.554;14.454;2023-10-13T03:13:16;11.95;;;4.50;;
37164;SDS011;23057;48.554;14.454;2023-10-13T03:15:47;9.55;;;4.30;;
37164;SDS011;23057;48.554;14.454;2023-10-13T03:18:17;6.03;;;4.13;;
37164;SDS011;23057;48.554;14.454;2023-10-13T03:20:48;11.43;;;4.50;;
37164;SDS011;23057;48.554;14.454;2023-10-13T03:23:26;10.70;;;4.70;;
37164;SDS011;23057;48.554;14.454;2023-10-13T03:25:57;12.27;;;5.00;;
37164;SDS011;23057;48.554;14.454;2023-10-13T03:28:34;10.18;;;4.60;;
37164;SDS011;23057;48.554;14.454;2023-10-13T03:31:05;13.52;;;5.03;;
37164;SDS011;23057;48.554;14.454;2023-10-13T03:33:37;7.60;;;3.88;;
37164;SDS011;23057;48.554;14.454;2023-10-13T03:36:08;12.50;;;3.88;;
37164;SDS011;23057;48.554;14.454;2023-10-13T03:38:39;10.93;;;4.00;;
37164;SDS011;23057;48.554;14.454;2023-10-13T03:41:10;9.43;;;4.53;;
37164;SDS011;23057;48.554;14.454;2023-10-13T03:43:50;8.50;;;4.40;;
37164;SDS011;23057;48.554;14.454;2023-10-13T03:46:37;8.85;;;4.38;;
37164;SDS011;23057;48.554;14.454;2023-10-13T03:49:11;6.80;;;3.85;;
37164;SDS011;23057;48.554;14.454;2023-10-13T03:51:42;9.05;;;4.18;;
37164;SDS011;23057;48.554;14.454;2023-10-13T03:54:14;8.30;;;4.82;;
37164;SDS011;23057;48.554;14.454;2023-10-13T03:56:46;9.50;;;5.03;;
37164;SDS011;23057;48.554;14.454;2023-10-13T03:59:22;9.05;;;4.10;;
37164;SDS011;23057;48.554;14.454;2023-10-13T04:01:53;10.80;;;3.97;;
37164;SDS011;23057;48.554;14.454;2023-10-13T04:04:24;9.20;;;4.43;;
37164;SDS011;23057;48.554;14.454;2023-10-13T04:07:04;6.80;;;4.53;;
37164;SDS011;23057;48.554;14.454;2023-10-13T04:09:36;12.18;;;4.63;;
37164;SDS011;23057;48.554;14.454;2023-10-13T04:12:17;11.77;;;4.30;;
37164;SDS011;23057;48.554;14.454;2023-10-13T04:14:56;8.25;;;4.15;;
37164;SDS011;23057;48.554;14.454;2023-10-13T04:17:35;12.65;;;5.03;;
37164;SDS011;23057;48.554;14.454;2023-10-13T04:20:15;7.40;;;4.68;;
37164;SDS011;23057;48.554;14.454;2023-10-13T04:22:58;13.32;;;4.22;;
37164;SDS011;23057;48.554;14.454;2023-10-13T04:25:28;8.60;;;4.50;;
37164;SDS011;23057;48.554;14.454;2023-10-13T04:28:09;10.27;;;3.92;;
37164;SDS011;23057;48.554;14.454;2023-10-13T04:31:04;8.63;;;4.13;;
37164;SDS011;23057;48.554;14.454;2023-10-13T04:33:54;8.38;;;4.65;;
37164;SDS011;23057;48.554;14.454;2023-10-13T04:36:31;6.70;;;4.27;;
37164;SDS011;23057;48.554;14.454;2023-10-13T04:39:02;7.32;;;4.30;;
37164;SDS011;23057;48.554;14.454;2023-10-13T04:41:34;11.00;;;4.72;;
37164;SDS011;23057;48.554;14.454;2023-10-13T04:44:20;9.82;;;4.85;;
37164;SDS011;23057;48.554;14.454;2023-10-13T04:47:13;9.25;;;4.22;;
37164;SDS011;23057;48.554;14.454;2023-10-13T04:49:47;8.27;;;4.70;;
37164;SDS011;23057;48.554;14.454;2023-10-13T04:52:18;8.18;;;5.03;;
37164;SDS011;23057;48.554;14.454;2023-10-13T04:55:08;10.80;;;4.85;;
37164;SDS011;23057;48.554;14.454;2023-10-13T04:58:07;8.57;;;5.50;;
37164;SDS011;23057;48.554;14.454;2023-10-13T05:00:44;6.40;;;4.67;;
37164;SDS011;23057;48.554;14.454;2023-10-13T05:03:33;10.23;;;5.10;;
37164;SDS011;23057;48.554;14.454;2023-10-13T05:06:22;14.07;;;5.47;;
37164;SDS011;23057;48.554;14.454;2023-10-13T05:09:12;12.82;;;5.53;;
37164;SDS011;23057;48.554;14.454;2023-10-13T05:12:02;10.82;;;5.53;;
37164;SDS011;23057;48.554;14.454;2023-10-13T05:14:52;10.80;;;5.13;;
37164;SDS011;23057;48.554;14.454;2023-10-13T05:17:41;9.68;;;5.40;;
37164;SDS011;23057;48.554;14.454;2023-10-13T05:20:30;12.98;;;5.07;;
37164;SDS011;23057;48.554;14.454;2023-10-13T05:23:20;12.43;;;4.53;;
37164;SDS011;23057;48.554;14.454;2023-10-13T05:26:09;12.70;;;4.80;;
37164;SDS011;23057;48.554;14.454;2023-10-13T05:28:59;7.82;;;4.47;;
37164;SDS011;23057;48.554;14.454;2023-10-13T05:31:48;10.93;;;5.55;;
37164;SDS011;23057;48.554;14.454;2023-10-13T05:34:38;10.02;;;4.72;;
37164;SDS011;23057;48.554;14.454;2023-10-13T05:37:28;13.98;;;5.07;;
37164;SDS011;23057;48.554;14.454;2023-10-13T05:40:17;15.60;;;5.82;;
37164;SDS011;23057;48.554;14.454;2023-10-13T05:43:07;9.85;;;5.13;;
37164;SDS011;23057;48.554;14.454;2023-10-13T05:46:01;9.07;;;4.80;;
37164;SDS011;23057;48.554;14.454;2023-10-13T05:49:12;9.43;;;4.35;;
37164;SDS011;23057;48.554;14.454;2023-10-13T05:51:45;12.43;;;4.72;;
37164;SDS011;23057;48.554;14.454;2023-10-13T05:54:18;11.50;;;5.65;;
37164;SDS011;23057;48.554;14.454;2023-10-13T05:57:07;10.75;;;6.63;;
37164;SDS011;23057;48.554;14.454;2023-10-13T05:59:57;13.85;;;5.88;;
37164;SDS011;23057;48.554;14.454;2023-10-13T06:02:47;12.32;;;6.03;;
37164;SDS011;23057;48.554;14.454;2023-10-13T06:05:36;18.42;;;6.80;;
37164;SDS011;23057;48.554;14.454;2023-10-13T06:08:26;22.00;;;6.38;;
37164;SDS011;23057;48.554;14.454;2023-10-13T06:11:16;16.45;;;7.18;;
37164;SDS011;23057;48.554;14.454;2023-10-13T06:14:05;16.00;;;7.00;;
37164;SDS011;23057;48.554;14.454;2023-10-13T06:17:15;13.43;;;6.60;;
37164;SDS011;23057;48.554;14.454;2023-10-13T06:20:09;12.05;;;6.90;;
37164;SDS011;23057;48.554;14.454;2023-10-13T06:22:58;17.15;;;7.28;;
37164;SDS011;23057;48.554;14.454;2023-10-13T06:25:51;16.20;;;7.25;;
37164;SDS011;23057;48.554;14.454;2023-10-13T06:28:42;12.55;;;6.65;;
37164;SDS011;23057;48.554;14.454;2023-10-13T06:31:15;13.65;;;6.38;;
37164;SDS011;23057;48.554;14.454;2023-10-13T06:33:52;16.60;;;6.43;;
37164;SDS011;23057;48.554;14.454;2023-10-13T06:36:25;14.23;;;6.78;;
37164;SDS011;23057;48.554;14.454;2023-10-13T06:38:57;11.52;;;6.40;;
37164;SDS011;23057;48.554;14.454;2023-10-13T06:41:47;13.75;;;6.60;;
37164;SDS011;23057;48.554;14.454;2023-10-13T06:44:18;17.67;;;6.93;;
37164;SDS011;23057;48.554;14.454;2023-10-13T06:46:52;16.63;;;7.78;;
37164;SDS011;23057;48.554;14.454;2023-10-13T06:49:23;15.25;;;7.60;;
37164;SDS011;23057;48.554;14.454;2023-10-13T06:51:54;13.35;;;6.32;;
37164;SDS011;23057;48.554;14.454;2023-10-13T06:54:30;14.88;;;7.13;;
37164;SDS011;23057;48.554;14.454;2023-10-13T06:57:03;13.57;;;7.28;;
37164;SDS011;23057;48.554;14.454;2023-10-13T06:59:36;13.93;;;7.07;;
37164;SDS011;23057;48.554;14.454;2023-10-13T07:02:09;14.75;;;8.00;;
37164;SDS011;23057;48.554;14.454;2023-10-13T07:04:51;16.48;;;7.25;;
37164;SDS011;23057;48.554;14.454;2023-10-13T07:07:26;12.95;;;6.53;;
37164;SDS011;23057;48.554;14.454;2023-10-13T07:09:57;16.50;;;6.65;;
37164;SDS011;23057;48.554;14.454;2023-10-13T07:12:28;15.57;;;6.47;;
37164;SDS011;23057;48.554;14.454;2023-10-13T07:15:03;14.63;;;6.05;;
37164;SDS011;23057;48.554;14.454;2023-10-13T07:17:40;17.90;;;6.10;;
37164;SDS011;23057;48.554;14.454;2023-10-13T07:20:14;14.52;;;7.03;;
37164;SDS011;23057;48.554;14.454;2023-10-13T07:22:46;18.00;;;6.63;;
37164;SDS011;23057;48.554;14.454;2023-10-13T07:25:53;14.02;;;6.80;;
37164;SDS011;23057;48.554;14.454;2023-10-13T07:28:33;11.50;;;6.90;;
37164;SDS011;23057;48.554;14.454;2023-10-13T07:31:13;12.38;;;6.30;;
37164;SDS011;23057;48.554;14.454;2023-10-13T07:33:52;17.38;;;6.50;;
37164;SDS011;23057;48.554;14.454;2023-10-13T07:36:42;12.73;;;7.55;;
37164;SDS011;23057;48.554;14.454;2023-10-13T07:39:13;13.85;;;6.82;;
37164;SDS011;23057;48.554;14.454;2023-10-13T07:41:51;12.45;;;7.22;;
37164;SDS011;23057;48.554;14.454;2023-10-13T07:44:46;12.63;;;6.85;;
37164;SDS011;23057;48.554;14.454;2023-10-13T07:47:16;14.93;;;6.70;;
37164;SDS011;23057;48.554;14.454;2023-10-13T07:49:50;14.50;;;6.82;;
37164;SDS011;23057;48.554;14.454;2023-10-13T07:52:21;16.52;;;6.00;;
37164;SDS011;23057;48.554;14.454;2023-10-13T07:54:51;15.45;;;6.18;;
37164;SDS011;23057;48.554;14.454;2023-10-13T07:57:41;13.18;;;5.45;;
37164;SDS011;23057;48.554;14.454;2023-10-13T08:00:26;9.85;;;5.22;;
37164;SDS011;23057;48.554;14.454;2023-10-13T08:03:08;17.75;;;5.95;;
37164;SDS011;23057;48.554;14.454;2023-10-13T08:05:53;13.73;;;5.95;;
37164;SDS011;23057;48.554;14.454;2023-10-13T08:08:42;8.57;;;5.40;;
37164;SDS011;23057;48.554;14.454;2023-10-13T08:11:14;9.90;;;5.03;;
37164;SDS011;23057;48.554;14.454;2023-10-13T08:13:55;11.18;;;4.68;;
37164;SDS011;23057;48.554;14.454;2023-10-13T08:16:43;10.35;;;5.13;;
37164;SDS011;23057;48.554;14.454;2023-10-13T08:19:23;7.28;;;4.45;;
37164;SDS011;23057;48.554;14.454;2023-10-13T08:21:58;12.23;;;4.32;;
37164;SDS011;23057;48.554;14.454;2023-10-13T08:25:07;10.88;;;5.28;;
37164;SDS011;23057;48.554;14.454;2023-10-13T08:28:16;10.43;;;4.63;;
37164;SDS011;23057;48.554;14.454;2023-10-13T08:31:07;7.28;;;4.40;;
37164;SDS011;23057;48.554;14.454;2023-10-13T08:33:52;10.35;;;4.15;;
37164;SDS011;23057;48.554;14.454;2023-10-13T08:36:35;12.13;;;4.13;;
37164;SDS011;23057;48.554;14.454;2023-10-13T08:39:08;12.00;;;4.32;;
37164;SDS011;23057;48.554;14.454;2023-10-13T08:42:08;8.85;;;4.00;;
37164;SDS011;23057;48.554;14.454;2023-10-13T08:44:43;12.73;;;3.63;;
37164;SDS011;23057;48.554;14.454;2023-10-13T08:47:15;6.82;;;3.42;;
37164;SDS011;23057;48.554;14.454;2023-10-13T08:49:54;10.40;;;2.90;;
37164;SDS011;23057;48.554;14.454;2023-10-13T08:52:40;8.57;;;3.72;;
37164;SDS011;23057;48.554;14.454;2023-10-13T08:55:19;8.70;;;3.38;;
37164;SDS011;23057;48.554;14.454;2023-10-13T08:58:08;13.95;;;4.18;;
37164;SDS011;23057;48.554;14.454;2023-10-13T09:00:50;11.43;;;3.83;;
37164;SDS011;23057;48.554;14.454;2023-10-13T09:03:41;5.90;;;3.38;;
37164;SDS011;23057;48.554;14.454;2023-10-13T09:06:13;7.07;;;3.20;;
37164;SDS011;23057;48.554;14.454;2023-10-13T09:08:50;7.95;;;3.22;;
37164;SDS011;23057;48.554;14.454;2023-10-13T09:11:37;7.70;;;3.30;;
37164;SDS011;23057;48.554;14.454;2023-10-13T09:14:23;7.78;;;3.42;;
37164;SDS011;23057;48.554;14.454;2023-10-13T09:17:04;9.15;;;3.15;;
37164;SDS011;23057;48.554;14.454;2023-10-13T09:19:49;7.95;;;3.50;;
37164;SDS011;23057;48.554;14.454;2023-10-13T09:22:26;9.93;;;3.30;;
37164;SDS011;23057;48.554;14.454;2023-10-13T09:25:06;6.40;;;3.00;;
37164;SDS011;23057;48.554;14.454;2023-10-13T09:27:43;5.90;;;3.08;;
37164;SDS011;23057;48.554;14.454;2023-10-13T09:30:21;7.68;;;2.95;;
37164;SDS011;23057;48.554;14.454;2023-10-13T09:35:34;6.57;;;2.38;;
37164;SDS011;23057;48.554;14.454;2023-10-13T09:38:09;12.85;;;2.67;;
37164;SDS011;23057;48.554;14.454;2023-10-13T09:40:42;7.03;;;2.92;;
37164;SDS011;23057;48.554;14.454;2023-10-13T09:45:51;5.97;;;3.05;;
37164;SDS011;23057;48.554;14.454;2023-10-13T09:48:37;10.18;;;2.90;;
37164;SDS011;23057;48.554;14.454;2023-10-13T09:51:16;6.13;;;3.00;;
37164;SDS011;23057;48.554;14.454;2023-10-13T09:53:52;11.98;;;2.28;;
37164;SDS011;23057;48.554;14.454;2023-10-13T09:56:40;8.57;;;3.17;;
37164;SDS011;23057;48.554;14.454;2023-10-13T09:59:31;6.30;;;3.30;;
37164;SDS011;23057;48.554;14.454;2023-10-13T10:02:21;5.28;;;2.45;;
37164;SDS011;23057;48.554;14.454;2023-10-13T10:04:56;6.13;;;2.97;;
37164;SDS011;23057;48.554;14.454;2023-10-13T10:07:42;7.35;;;2.67;;
37164;SDS011;23057;48.554;14.454;2023-10-13T10:10:47;15.10;;;2.88;;
37164;SDS011;23057;48.554;14.454;2023-10-13T10:14:08;5.68;;;3.25;;
37164;SDS011;23057;48.554;14.454;2023-10-13T10:20:12;10.18;;;2.53;;
37164;SDS011;23057;48.554;14.454;2023-10-13T10:22:55;5.43;;;2.45;;
37164;SDS011;23057;48.554;14.454;2023-10-13T10:25:33;8.90;;;2.67;;
37164;SDS011;23057;48.554;14.454;2023-10-13T10:28:06;6.85;;;3.08;;
37164;SDS011;23057;48.554;14.454;2023-10-13T10:30:38;9.02;;;2.45;;
37164;SDS011;23057;48.554;14.454;2023-10-13T10:33:09;6.45;;;2.58;;
37164;SDS011;23057;48.554;14.454;2023-10-13T10:35:43;9.57;;;3.50;;
37164;SDS011;23057;48.554;14.454;2023-10-13T10:38:17;7.95;;;2.42;;
37164;SDS011;23057;48.554;14.454;2023-10-13T10:40:59;6.85;;;2.72;;
37164;SDS011;23057;48.554;14.454;2023-10-13T10:43:36;6.55;;;2.40;;
37164;SDS011;23057;48.554;14.454;2023-10-13T10:46:26;7.72;;;2.47;;
37164;SDS011;23057;48.554;14.454;2023-10-13T10:49:03;5.50;;;2.60;;
37164;SDS011;23057;48.554;14.454;2023-10-13T10:51:45;7.43;;;2.53;;
37164;SDS011;23057;48.554;14.454;2023-10-13T10:54:19;6.38;;;2.45;;
37164;SDS011;23057;48.554;14.454;2023-10-13T10:56:50;8.15;;;2.88;;
37164;SDS011;23057;48.554;14.454;2023-10-13T10:59:34;8.40;;;2.60;;
37164;SDS011;23057;48.554;14.454;2023-10-13T11:02:07;7.10;;;2.50;;
37164;SDS011;23057;48.554;14.454;2023-10-13T11:04:38;15.52;;;3.17;;
37164;SDS011;23057;48.554;14.454;2023-10-13T11:07:22;5.30;;;2.55;;
37164;SDS011;23057;48.554;14.454;2023-10-13T11:09:55;7.93;;;3.85;;
37164;SDS011;23057;48.554;14.454;2023-10-13T11:12:37;11.52;;;2.85;;
37164;SDS011;23057;48.554;14.454;2023-10-13T11:15:09;10.93;;;3.10;;
37164;SDS011;23057;48.554;14.454;2023-10-13T11:17:47;7.20;;;2.45;;
37164;SDS011;23057;48.554;14.454;2023-10-13T11:20:26;6.88;;;3.40;;
37164;SDS011;23057;48.554;14.454;2023-10-13T11:23:13;4.97;;;2.33;;
37164;SDS011;23057;48.554;14.454;2023-10-13T11:25:45;11.15;;;2.80;;
37164;SDS011;23057;48.554;14.454;2023-10-13T11:28:17;7.55;;;2.72;;
37164;SDS011;23057;48.554;14.454;2023-10-13T11:30:50;7.30;;;2.47;;
37164;SDS011;23057;48.554;14.454;2023-10-13T11:33:21;7.35;;;2.47;;
37164;SDS011;23057;48.554;14.454;2023-10-13T11:35:57;6.75;;;2.17;;
37164;SDS011;23057;48.554;14.454;2023-10-13T11:38:32;5.78;;;2.92;;
37164;SDS011;23057;48.554;14.454;2023-10-13T11:41:10;8.73;;;2.67;;
37164;SDS011;23057;48.554;14.454;2023-10-13T11:43:52;6.63;;;2.60;;
37164;SDS011;23057;48.554;14.454;2023-10-13T11:46:36;9.13;;;2.88;;
37164;SDS011;23057;48.554;14.454;2023-10-13T11:49:08;9.52;;;3.33;;
37164;SDS011;23057;48.554;14.454;2023-10-13T11:51:45;6.75;;;2.53;;
37164;SDS011;23057;48.554;14.454;2023-10-13T11:54:19;6.47;;;2.63;;
37164;SDS011;23057;48.554;14.454;2023-10-13T11:56:53;5.63;;;2.45;;
37164;SDS011;23057;48.554;14.454;2023-10-13T11:59:28;9.70;;;3.10;;
37164;SDS011;23057;48.554;14.454;2023-10-13T12:01:59;7.60;;;2.60;;
37164;SDS011;23057;48.554;14.454;2023-10-13T12:04:48;9.05;;;2.70;;
37164;SDS011;23057;48.554;14.454;2023-10-13T12:07:24;9.52;;;2.78;;
37164;SDS011;23057;48.554;14.454;2023-10-13T12:10:14;7.70;;;2.53;;
37164;SDS011;23057;48.554;14.454;2023-10-13T12:12:46;8.35;;;3.13;;
37164;SDS011;23057;48.554;14.454;2023-10-13T12:15:23;7.80;;;2.60;;
37164;SDS011;23057;48.554;14.454;2023-10-13T12:18:06;6.30;;;2.63;;
37164;SDS011;23057;48.554;14.454;2023-10-13T12:20:37;11.05;;;2.90;;
37164;SDS011;23057;48.554;14.454;2023-10-13T12:25:47;7.18;;;3.17;;
37164;SDS011;23057;48.554;14.454;2023-10-13T12:28:30;8.10;;;2.72;;
37164;SDS011;23057;48.554;14.454;2023-10-13T12:31:07;13.80;;;2.97;;
37164;SDS011;23057;48.554;14.454;2023-10-13T12:33:41;11.90;;;2.22;;
37164;SDS011;23057;48.554;14.454;2023-10-13T12:36:12;5.93;;;3.15;;
37164;SDS011;23057;48.554;14.454;2023-10-13T12:39:00;5.53;;;2.47;;
37164;SDS011;23057;48.554;14.454;2023-10-13T12:41:51;12.60;;;2.53;;
37164;SDS011;23057;48.554;14.454;2023-10-13T12:44:40;9.75;;;2.97;;
37164;SDS011;23057;48.554;14.454;2023-10-13T12:47:30;7.90;;;2.45;;
37164;SDS011;23057;48.554;14.454;2023-10-13T12:50:19;9.23;;;2.47;;
37164;SDS011;23057;48.554;14.454;2023-10-13T12:53:13;8.35;;;2.40;;
37164;SDS011;23057;48.554;14.454;2023-10-13T12:55:44;9.02;;;2.53;;
37164;SDS011;23057;48.554;14.454;2023-10-13T12:58:15;7.28;;;3.33;;
37164;SDS011;23057;48.554;14.454;2023-10-13T13:00:46;6.80;;;2.30;;
37164;SDS011;23057;48.554;14.454;2023-10-13T13:03:18;6.28;;;2.45;;
37164;SDS011;23057;48.554;14.454;2023-10-13T13:05:49;11.07;;;2.83;;
37164;SDS011;23057;48.554;14.454;2023-10-13T13:08:25;10.07;;;2.97;;
37164;SDS011;23057;48.554;14.454;2023-10-13T13:10:56;5.45;;;2.50;;
37164;SDS011;23057;48.554;14.454;2023-10-13T13:13:27;7.85;;;3.00;;
37164;SDS011;23057;48.554;14.454;2023-10-13T13:15:57;9.90;;;2.53;;
37164;SDS011;23057;48.554;14.454;2023-10-13T13:18:28;8.30;;;2.28;;
37164;SDS011;23057;48.554;14.454;2023-10-13T13:20:59;8.23;;;2.40;;
37164;SDS011;23057;48.554;14.454;2023-10-13T13:23:32;10.18;;;2.33;;
37164;SDS011;23057;48.554;14.454;2023-10-13T13:26:04;15.95;;;3.20;;
37164;SDS011;23057;48.554;14.454;2023-10-13T13:28:46;12.82;;;2.95;;
37164;SDS011;23057;48.554;14.454;2023-10-13T13:31:22;8.00;;;2.50;;
37164;SDS011;23057;48.554;14.454;2023-10-13T13:33:59;5.70;;;2.00;;
37164;SDS011;23057;48.554;14.454;2023-10-13T13:36:29;6.88;;;2.30;;
37164;SDS011;23057;48.554;14.454;2023-10-13T13:39:00;10.23;;;2.63;;
37164;SDS011;23057;48.554;14.454;2023-10-13T13:41:31;9.40;;;2.45;;
37164;SDS011;23057;48.554;14.454;2023-10-13T13:44:03;7.20;;;2.03;;
37164;SDS011;23057;48.554;14.454;2023-10-13T13:46:43;10.02;;;2.50;;
37164;SDS011;23057;48.554;14.454;2023-10-13T13:49:14;7.35;;;2.25;;
37164;SDS011;23057;48.554;14.454;2023-10-13T13:51:48;7.72;;;2.40;;
37164;SDS011;23057;48.554;14.454;2023-10-13T13:54:22;8.77;;;2.47;;
37164;SDS011;23057;48.554;14.454;2023-10-13T13:56:56;5.97;;;2.65;;
37164;SDS011;23057;48.554;14.454;2023-10-13T13:59:27;11.50;;;2.45;;
37164;SDS011;23057;48.554;14.454;2023-10-13T14:02:04;9.35;;;2.50;;
37164;SDS011;23057;48.554;14.454;2023-10-13T14:04:49;11.85;;;2.35;;
37164;SDS011;23057;48.554;14.454;2023-10-13T14:07:20;9.43;;;2.60;;
37164;SDS011;23057;48.554;14.454;2023-10-13T14:09:54;5.78;;;2.28;;
37164;SDS011;23057;48.554;14.454;2023-10-13T14:12:37;10.15;;;2.42;;
37164;SDS011;23057;48.554;14.454;2023-10-13T14:15:14;5.07;;;2.30;;
37164;SDS011;23057;48.554;14.454;2023-10-13T14:17:53;7.75;;;1.98;;
37164;SDS011;23057;48.554;14.454;2023-10-13T14:20:24;10.40;;;2.25;;
37164;SDS011;23057;48.554;14.454;2023-10-13T14:22:56;8.20;;;2.70;;
37164;SDS011;23057;48.554;14.454;2023-10-13T14:25:27;10.02;;;2.35;;
37164;SDS011;23057;48.554;14.454;2023-10-13T14:28:07;7.55;;;1.98;;
37164;SDS011;23057;48.554;14.454;2023-10-13T14:30:38;4.55;;;1.80;;
37164;SDS011;23057;48.554;14.454;2023-10-13T14:33:08;13.50;;;2.33;;
37164;SDS011;23057;48.554;14.454;2023-10-13T14:35:40;8.50;;;2.58;;
37164;SDS011;23057;48.554;14.454;2023-10-13T14:38:16;6.75;;;2.45;;
37164;SDS011;23057;48.554;14.454;2023-10-13T14:40:47;14.20;;;2.58;;
37164;SDS011;23057;48.554;14.454;2023-10-13T14:43:26;5.57;;;2.20;;
37164;SDS011;23057;48.554;14.454;2023-10-13T14:45:57;13.05;;;2.83;;
37164;SDS011;23057;48.554;14.454;2023-10-13T14:48:31;7.93;;;2.25;;
37164;SDS011;23057;48.554;14.454;2023-10-13T14:51:01;9.13;;;2.17;;
37164;SDS011;23057;48.554;14.454;2023-10-13T14:53:40;8.85;;;2.20;;
37164;SDS011;23057;48.554;14.454;2023-10-13T14:56:14;16.52;;;2.42;;
37164;SDS011;23057;48.554;14.454;2023-10-13T14:58:47;12.00;;;3.00;;
37164;SDS011;23057;48.554;14.454;2023-10-13T15:01:22;8.43;;;2.58;;
37164;SDS011;23057;48.554;14.454;2023-10-13T15:03:56;5.85;;;2.70;;
37164;SDS011;23057;48.554;14.454;2023-10-13T15:06:28;7.65;;;3.20;;
37164;SDS011;23057;48.554;14.454;2023-10-13T15:08:59;8.18;;;3.05;;
37164;SDS011;23057;48.554;14.454;2023-10-13T15:11:31;10.68;;;2.95;;
37164;SDS011;23057;48.554;14.454;2023-10-13T15:14:18;7.65;;;2.80;;
37164;SDS011;23057;48.554;14.454;2023-10-13T15:16:57;12.80;;;3.95;;
37164;SDS011;23057;48.554;14.454;2023-10-13T15:19:30;11.45;;;3.17;;
37164;SDS011;23057;48.554;14.454;2023-10-13T15:22:05;9.45;;;2.88;;
37164;SDS011;23057;48.554;14.454;2023-10-13T15:24:36;8.75;;;3.35;;
37164;SDS011;23057;48.554;14.454;2023-10-13T15:27:15;12.60;;;3.20;;
37164;SDS011;23057;48.554;14.454;2023-10-13T15:29:51;13.25;;;2.92;;
37164;SDS011;23057;48.554;14.454;2023-10-13T15:32:22;9.10;;;2.80;;
37164;SDS011;23057;48.554;14.454;2023-10-13T15:35:11;12.85;;;3.22;;
37164;SDS011;23057;48.554;14.454;2023-10-13T15:37:42;7.03;;;2.60;;
37164;SDS011;23057;48.554;14.454;2023-10-13T15:40:17;7.68;;;3.25;;
37164;SDS011;23057;48.554;14.454;2023-10-13T15:42:48;10.25;;;2.78;;
37164;SDS011;23057;48.554;14.454;2023-10-13T15:45:19;9.85;;;3.22;;